Terminal Aerodrome Forecast
Issued by NWS

Home | Current Version | Previous Version | Text Only | Print | Product List | Glossary On
Versions: 1 2 3 4 5 6 7 8 9 10 11 12 13 14
000
FTUS45 KTFX 262333
TAFHVR
TAF
KHVR 262333Z 2700/2724 24010KT P6SM BKN100
     FM270200 22006KT P6SM SCT100 BKN180
     FM271200 27006KT P6SM BKN120 PROB30 2715/2720 -SHRA BKN070
     FM272000 27008KT P6SM SCT070 BKN100
      TEMPO 2720/2724 -TSRA BKN060CB=

USA.gov is the U.S. government's official web portal to all federal, state and local government web resources and services.